createdAt,value
2022-12-22T00:00:48.406Z,4.20
2022-12-22T00:03:33.904Z,3.53
2022-12-22T00:06:19.208Z,4.53
2022-12-22T00:09:05.978Z,4.97
2022-12-22T00:11:51.549Z,3.83
2022-12-22T00:14:37.029Z,5.17
2022-12-22T00:17:26.606Z,3.97
2022-12-22T00:20:18.156Z,4.57
2022-12-22T00:23:04.045Z,4.57
2022-12-22T00:25:49.526Z,4.87
2022-12-22T00:28:35.467Z,4.37
2022-12-22T00:31:21.549Z,4.30
2022-12-22T00:34:07.119Z,3.70
2022-12-22T00:36:52.715Z,3.80
2022-12-22T00:39:38.198Z,3.53
2022-12-22T00:42:23.774Z,3.83
2022-12-22T00:45:09.351Z,4.73
2022-12-22T00:47:55.134Z,3.10
2022-12-22T00:50:46.697Z,4.03
2022-12-22T00:53:32.143Z,3.67
2022-12-22T00:56:17.888Z,3.40
2022-12-22T00:59:03.307Z,2.70
2022-12-22T01:01:49.139Z,4.73
2022-12-22T01:04:34.525Z,4.77
2022-12-22T01:07:20.057Z,3.67
2022-12-22T01:10:11.476Z,4.33
2022-12-22T01:12:58.821Z,2.93
2022-12-22T01:15:45.792Z,2.90
2022-12-22T01:18:31.307Z,2.93
2022-12-22T01:21:16.865Z,4.47
2022-12-22T01:24:03.258Z,4.43
2022-12-22T01:26:48.980Z,3.37
2022-12-22T01:29:34.884Z,2.93
2022-12-22T01:32:20.448Z,4.73
2022-12-22T01:35:05.992Z,3.80
2022-12-22T01:37:51.649Z,3.23
2022-12-22T01:40:40.900Z,2.47
2022-12-22T01:43:42.829Z,3.20
2022-12-22T01:46:45.451Z,4.33
2022-12-22T01:49:37.117Z,3.60
2022-12-22T01:52:24.649Z,3.07
2022-12-22T01:55:11.441Z,3.63
2022-12-22T01:57:56.943Z,3.30
2022-12-22T02:00:42.774Z,3.90
2022-12-22T02:03:38.876Z,2.80
2022-12-22T02:06:31.345Z,3.13
2022-12-22T02:09:49.459Z,3.27
2022-12-22T02:12:54.753Z,1.80
2022-12-22T02:16:05.240Z,2.70
2022-12-22T02:18:57.026Z,3.67
2022-12-22T02:21:45.552Z,2.70
2022-12-22T02:25:05.475Z,2.73
2022-12-22T02:27:55.521Z,4.63
2022-12-22T02:30:41.227Z,2.60
2022-12-22T02:33:27.746Z,2.00
2022-12-22T02:36:51.083Z,2.50
2022-12-22T02:40:01.784Z,3.03
2022-12-22T02:42:55.404Z,1.63
2022-12-22T02:45:49.828Z,2.47
2022-12-22T02:48:49.389Z,2.07
2022-12-22T02:51:42.540Z,1.60
2022-12-22T02:54:28.750Z,2.03
2022-12-22T02:57:14.132Z,2.53
2022-12-22T02:59:59.484Z,2.10
2022-12-22T03:02:45.541Z,2.70
2022-12-22T03:05:31.140Z,2.50
2022-12-22T03:08:17.196Z,2.30
2022-12-22T03:11:02.363Z,3.50
2022-12-22T03:13:48.361Z,3.73
2022-12-22T03:16:33.968Z,2.20
2022-12-22T03:19:19.692Z,2.50
2022-12-22T03:22:05.431Z,6.67
2022-12-22T03:24:51.302Z,3.07
2022-12-22T03:27:38.105Z,5.83
2022-12-22T03:30:25.896Z,2.93
2022-12-22T03:33:12.825Z,3.63
2022-12-22T03:35:59.943Z,6.57
2022-12-22T03:38:47.524Z,7.27
2022-12-22T03:41:34.601Z,6.57
2022-12-22T03:44:20.327Z,4.67
2022-12-22T03:47:07.594Z,6.80
2022-12-22T03:49:54.501Z,9.67
2022-12-22T03:52:41.568Z,4.27
2022-12-22T03:55:28.530Z,7.40
2022-12-22T03:58:15.788Z,4.50
2022-12-22T04:01:02.880Z,3.13
2022-12-22T04:03:49.937Z,4.60
2022-12-22T04:06:38.155Z,5.33
2022-12-22T04:09:25.445Z,4.23
2022-12-22T04:12:11.062Z,4.20
2022-12-22T04:14:58.862Z,3.53
2022-12-22T04:17:45.721Z,3.97
2022-12-22T04:20:32.918Z,8.03
2022-12-22T04:23:20.395Z,7.17
2022-12-22T04:26:07.448Z,4.83
2022-12-22T04:28:54.437Z,6.60
2022-12-22T04:31:43.055Z,4.87
2022-12-22T04:34:30.058Z,8.77
2022-12-22T04:37:17.868Z,5.43
2022-12-22T04:40:04.973Z,4.87
2022-12-22T04:42:52.081Z,4.43
2022-12-22T04:45:39.037Z,5.83
2022-12-22T04:48:26.258Z,4.07
2022-12-22T04:51:15.481Z,5.47
2022-12-22T04:54:02.454Z,2.97
2022-12-22T04:56:49.313Z,4.20
2022-12-22T04:59:36.652Z,3.93
2022-12-22T05:02:23.666Z,3.37
2022-12-22T05:05:10.785Z,4.97
2022-12-22T05:07:57.647Z,4.43
2022-12-22T05:10:44.776Z,3.40
2022-12-22T05:13:31.700Z,3.20
2022-12-22T05:16:30.716Z,3.23
2022-12-22T05:19:17.594Z,3.77
2022-12-22T05:22:04.654Z,4.50
2022-12-22T05:24:51.642Z,5.33
2022-12-22T05:27:38.729Z,4.13
2022-12-22T05:30:26.346Z,4.50
2022-12-22T05:33:13.703Z,6.00
2022-12-22T05:36:00.743Z,4.83
2022-12-22T05:38:48.171Z,4.23
2022-12-22T05:41:35.259Z,4.80
2022-12-22T05:44:22.369Z,4.67
2022-12-22T05:47:12.763Z,3.93
2022-12-22T05:49:59.691Z,6.77
2022-12-22T05:52:47.558Z,4.63
2022-12-22T05:55:35.765Z,3.13
2022-12-22T05:58:22.699Z,5.57
2022-12-22T06:01:10.271Z,5.33
2022-12-22T06:04:00.377Z,4.47
2022-12-22T06:06:49.308Z,5.33
2022-12-22T06:09:36.287Z,7.33
2022-12-22T06:12:23.577Z,6.20
2022-12-22T06:15:10.566Z,6.27
2022-12-22T06:17:57.637Z,5.63
2022-12-22T06:20:44.564Z,7.37
2022-12-22T06:23:31.917Z,4.40
2022-12-22T06:26:21.249Z,6.63
2022-12-22T06:29:08.629Z,4.73
2022-12-22T06:31:55.742Z,6.60
2022-12-22T06:34:42.954Z,5.57
2022-12-22T06:37:29.810Z,5.90
2022-12-22T06:40:17.412Z,4.23
2022-12-22T06:43:08.344Z,4.43
2022-12-22T06:46:03.777Z,5.17
2022-12-22T06:48:50.799Z,5.47
2022-12-22T06:51:37.813Z,5.33
2022-12-22T06:54:26.405Z,4.17
2022-12-22T06:57:13.789Z,5.00
2022-12-22T07:00:00.760Z,4.97
2022-12-22T07:02:48.144Z,4.00
2022-12-22T07:05:35.268Z,5.53
2022-12-22T07:08:22.278Z,4.37
2022-12-22T07:11:17.978Z,5.70
2022-12-22T07:14:05.598Z,4.93
2022-12-22T07:16:52.587Z,4.77
2022-12-22T07:19:39.829Z,5.50
2022-12-22T07:22:30.324Z,4.50
2022-12-22T07:25:18.695Z,4.87
2022-12-22T07:28:05.760Z,4.67
2022-12-22T07:30:53.516Z,3.83
2022-12-22T07:33:40.389Z,5.67
2022-12-22T07:36:31.014Z,4.43
2022-12-22T07:39:17.854Z,4.10
2022-12-22T07:42:03.871Z,4.30
2022-12-22T07:44:50.893Z,4.43
2022-12-22T07:47:37.934Z,5.93
2022-12-22T07:50:24.955Z,4.60
2022-12-22T07:53:12.699Z,3.77
2022-12-22T07:55:59.498Z,4.87
2022-12-22T07:58:46.578Z,5.93
2022-12-22T08:01:13.480Z,3.80
2022-12-22T08:03:40.594Z,4.27
2022-12-22T08:06:07.945Z,3.93
2022-12-22T08:08:35.266Z,5.37
2022-12-22T08:11:03.278Z,3.90
2022-12-22T08:13:30.569Z,4.70
2022-12-22T08:16:05.088Z,3.40
2022-12-22T08:18:33.197Z,3.20
2022-12-22T08:21:00.660Z,3.77
2022-12-22T08:23:27.617Z,4.10
2022-12-22T08:26:18.328Z,3.93
2022-12-22T08:28:58.861Z,3.73
2022-12-22T08:31:29.011Z,3.83
2022-12-22T08:33:58.522Z,3.40
2022-12-22T08:36:26.637Z,3.63
2022-12-22T08:38:53.727Z,3.23
2022-12-22T08:41:41.221Z,4.00
2022-12-22T08:44:28.127Z,2.47
2022-12-22T08:47:17.784Z,3.73
2022-12-22T08:50:04.820Z,3.80
2022-12-22T08:52:51.694Z,3.20
2022-12-22T08:55:38.640Z,2.90
2022-12-22T08:58:25.526Z,2.83
2022-12-22T09:01:12.589Z,3.97
2022-12-22T09:04:00.141Z,3.53
2022-12-22T09:06:48.050Z,2.57
2022-12-22T09:09:36.708Z,5.00
2022-12-22T09:12:23.921Z,2.23
2022-12-22T09:15:10.869Z,2.50
2022-12-22T09:17:57.895Z,2.50
2022-12-22T09:20:44.928Z,1.93
2022-12-22T09:23:31.910Z,3.27
2022-12-22T09:26:18.877Z,2.83
2022-12-22T09:29:05.912Z,4.00
2022-12-22T09:31:53.073Z,2.77
2022-12-22T09:34:40.162Z,2.53
2022-12-22T09:37:27.097Z,3.97
2022-12-22T09:40:14.325Z,4.67
2022-12-22T09:43:01.246Z,2.50
2022-12-22T09:45:48.152Z,3.43
2022-12-22T09:48:34.979Z,2.30
2022-12-22T09:51:26.650Z,3.17
2022-12-22T09:54:18.644Z,4.37
2022-12-22T09:57:05.687Z,3.20
2022-12-22T09:59:52.527Z,3.60
2022-12-22T10:02:57.900Z,4.33
2022-12-22T10:06:05.427Z,3.90
2022-12-22T10:08:55.465Z,2.83
2022-12-22T10:11:42.255Z,4.47
2022-12-22T10:14:31.213Z,5.60
2022-12-22T10:17:36.650Z,3.87
2022-12-22T10:20:47.156Z,3.00
2022-12-22T10:23:49.427Z,2.80
2022-12-22T10:26:46.117Z,2.80
2022-12-22T10:29:35.472Z,2.93
2022-12-22T10:32:31.314Z,3.50
2022-12-22T10:35:21.949Z,4.37
2022-12-22T10:38:21.506Z,5.20
2022-12-22T10:41:12.532Z,4.10
2022-12-22T10:44:07.622Z,2.97
2022-12-22T10:46:56.784Z,4.40
2022-12-22T10:49:48.639Z,4.00
2022-12-22T10:52:40.875Z,3.93
2022-12-22T10:55:46.621Z,3.23
2022-12-22T10:58:37.710Z,4.40
2022-12-22T11:01:25.728Z,2.37
2022-12-22T11:04:12.686Z,2.37
2022-12-22T11:06:41.164Z,5.00
2022-12-22T11:09:34.759Z,2.23
2022-12-22T11:12:34.804Z,3.43
2022-12-22T11:15:49.425Z,2.40
2022-12-22T11:18:55.166Z,2.20
2022-12-22T11:22:02.363Z,3.33
2022-12-22T11:25:05.029Z,3.27
2022-12-22T11:28:15.611Z,2.00
2022-12-22T11:31:18.696Z,1.97
2022-12-22T11:34:37.765Z,2.20
2022-12-22T11:37:34.423Z,1.70
2022-12-22T11:40:36.342Z,1.17
2022-12-22T11:44:02.519Z,1.57
2022-12-22T11:46:57.313Z,0.93
2022-12-22T11:50:00.281Z,2.23
2022-12-22T11:53:38.858Z,1.53
2022-12-22T11:56:49.408Z,0.93
2022-12-22T12:00:01.949Z,2.00
2022-12-22T12:03:17.377Z,0.53
2022-12-22T12:06:39.860Z,1.37
2022-12-22T12:09:42.132Z,0.87
2022-12-22T12:13:06.749Z,1.30
2022-12-22T12:16:04.864Z,0.77
2022-12-22T12:18:57.580Z,1.70
2022-12-22T12:21:53.686Z,1.10
2022-12-22T12:25:06.472Z,0.50
2022-12-22T12:28:19.444Z,1.37
2022-12-22T12:31:20.149Z,1.40
2022-12-22T12:34:14.330Z,0.97
2022-12-22T12:37:01.161Z,0.63
2022-12-22T12:40:20.400Z,0.67
2022-12-22T12:43:14.344Z,0.63
2022-12-22T12:46:06.163Z,0.80
2022-12-22T12:48:57.551Z,0.57
2022-12-22T12:52:09.706Z,0.57
2022-12-22T12:55:02.064Z,0.63
2022-12-22T12:58:05.095Z,1.43
2022-12-22T13:00:58.462Z,0.67
2022-12-22T13:04:05.446Z,0.67
2022-12-22T13:07:10.865Z,0.40
2022-12-22T13:10:27.786Z,1.40
2022-12-22T13:13:15.383Z,1.07
2022-12-22T13:16:03.018Z,1.23
2022-12-22T13:18:59.154Z,0.60
2022-12-22T13:21:53.398Z,0.97
2022-12-22T13:24:48.865Z,0.90
2022-12-22T13:27:51.744Z,0.80
2022-12-22T13:30:41.503Z,0.40
2022-12-22T13:33:35.571Z,0.77
2022-12-22T13:36:24.949Z,0.30
2022-12-22T13:39:22.725Z,0.83
2022-12-22T13:42:11.343Z,0.50
2022-12-22T13:44:59.092Z,1.23
2022-12-22T13:47:46.998Z,1.67
2022-12-22T13:50:50.972Z,0.60
2022-12-22T13:54:10.319Z,0.60
2022-12-22T13:57:14.441Z,1.20
2022-12-22T14:00:03.543Z,0.70
2022-12-22T14:02:57.117Z,0.67
2022-12-22T14:05:50.893Z,0.70
2022-12-22T14:08:42.890Z,0.80
2022-12-22T14:11:30.300Z,0.40
2022-12-22T14:14:17.300Z,0.57
2022-12-22T14:17:06.804Z,0.93
2022-12-22T14:19:57.458Z,0.87
2022-12-22T14:22:49.890Z,1.20
2022-12-22T14:25:40.536Z,0.67
2022-12-22T14:28:38.417Z,0.60
2022-12-22T14:31:27.506Z,0.90
2022-12-22T14:34:21.766Z,1.07
2022-12-22T14:37:11.903Z,0.57
2022-12-22T14:39:59.142Z,0.70
2022-12-22T14:42:46.202Z,0.50
2022-12-22T14:45:35.379Z,0.80
2022-12-22T14:48:28.177Z,0.80
2022-12-22T14:51:15.779Z,1.37
2022-12-22T14:54:13.518Z,0.40
2022-12-22T14:57:15.616Z,0.43
2022-12-22T15:00:18.602Z,0.40
2022-12-22T15:03:12.156Z,0.70
2022-12-22T15:05:59.368Z,0.63
2022-12-22T15:09:02.947Z,0.57
2022-12-22T15:11:50.810Z,0.63
2022-12-22T15:14:41.223Z,1.53
2022-12-22T15:17:41.285Z,1.77
2022-12-22T15:20:39.192Z,1.40
2022-12-22T15:23:34.185Z,0.73
2022-12-22T15:26:21.206Z,1.43
2022-12-22T15:29:08.021Z,1.27
2022-12-22T15:31:55.873Z,2.40
2022-12-22T15:34:45.736Z,1.07
2022-12-22T15:37:33.100Z,1.27
2022-12-22T15:40:19.977Z,1.00
2022-12-22T15:43:17.334Z,2.17
2022-12-22T15:46:14.459Z,0.60
2022-12-22T15:49:02.808Z,0.73
2022-12-22T15:51:51.633Z,1.10
2022-12-22T15:54:38.984Z,1.10
2022-12-22T15:57:29.296Z,0.80
2022-12-22T16:00:16.125Z,0.93
2022-12-22T16:03:03.310Z,0.47
2022-12-22T16:05:50.414Z,0.73
2022-12-22T16:08:21.251Z,0.97
2022-12-22T16:10:49.402Z,0.60
2022-12-22T16:13:17.436Z,0.60
2022-12-22T16:15:44.445Z,0.70
2022-12-22T16:18:32.477Z,0.40
2022-12-22T16:21:27.369Z,0.40
2022-12-22T16:24:14.342Z,0.50
2022-12-22T16:27:06.894Z,1.20
2022-12-22T16:29:53.973Z,3.73
2022-12-22T16:32:46.898Z,0.23
2022-12-22T16:35:43.090Z,0.50
2022-12-22T16:38:30.573Z,0.40
2022-12-22T16:41:17.609Z,1.13
2022-12-22T16:44:05.985Z,1.13
2022-12-22T16:46:56.911Z,0.90
2022-12-22T16:49:43.922Z,0.60
2022-12-22T16:52:40.506Z,1.37
2022-12-22T16:55:46.652Z,0.93
2022-12-22T16:58:33.464Z,2.17
2022-12-22T17:01:20.550Z,1.70
2022-12-22T17:04:07.557Z,0.50
2022-12-22T17:06:55.167Z,1.20
2022-12-22T17:09:46.216Z,1.43
2022-12-22T17:12:43.468Z,0.60
2022-12-22T17:15:37.964Z,1.07
2022-12-22T17:18:33.982Z,1.60
2022-12-22T17:21:20.998Z,0.57
2022-12-22T17:24:11.363Z,0.43
2022-12-22T17:26:58.364Z,0.60
2022-12-22T17:29:45.376Z,1.03
2022-12-22T17:32:35.762Z,1.00
2022-12-22T17:35:22.684Z,0.70
2022-12-22T17:38:10.558Z,1.53
2022-12-22T17:40:57.800Z,0.93
2022-12-22T17:43:44.828Z,1.13
2022-12-22T17:46:37.818Z,0.87
2022-12-22T17:49:24.933Z,0.80
2022-12-22T17:52:12.112Z,0.50
2022-12-22T17:54:59.165Z,1.47
2022-12-22T17:57:51.362Z,1.20
2022-12-22T18:00:42.396Z,1.37
2022-12-22T18:03:33.678Z,1.13
2022-12-22T18:06:20.957Z,1.07
2022-12-22T18:09:08.454Z,0.47
2022-12-22T18:11:55.505Z,1.47
2022-12-22T18:14:43.261Z,0.87
2022-12-22T18:17:45.209Z,1.23
2022-12-22T18:20:38.220Z,0.53
2022-12-22T18:23:25.241Z,1.27
2022-12-22T18:26:12.230Z,0.57
2022-12-22T18:28:59.066Z,1.10
2022-12-22T18:31:46.039Z,1.13
2022-12-22T18:34:33.258Z,0.80
2022-12-22T18:37:21.209Z,3.17
2022-12-22T18:40:08.170Z,1.90
2022-12-22T18:42:55.237Z,1.07
2022-12-22T18:45:44.224Z,1.90
2022-12-22T18:48:11.266Z,1.30
2022-12-22T18:50:40.392Z,1.03
2022-12-22T18:53:59.841Z,0.93
2022-12-22T18:56:46.663Z,2.20
2022-12-22T18:59:45.498Z,2.13
2022-12-22T19:02:52.685Z,1.83
2022-12-22T19:05:45.556Z,1.37
2022-12-22T19:08:45.476Z,1.87
2022-12-22T19:11:34.999Z,1.47
2022-12-22T19:14:22.040Z,2.47
2022-12-22T19:17:09.128Z,1.00
2022-12-22T19:19:55.951Z,1.33
2022-12-22T19:22:43.025Z,1.47
2022-12-22T19:25:51.388Z,1.00
2022-12-22T19:28:56.613Z,2.30
2022-12-22T19:31:47.066Z,0.70
2022-12-22T19:34:40.182Z,0.93
2022-12-22T19:37:28.877Z,2.47
2022-12-22T19:40:15.951Z,1.53
2022-12-22T19:43:06.340Z,1.77
2022-12-22T19:45:54.292Z,2.97
2022-12-22T19:48:44.594Z,2.27
2022-12-22T19:51:31.662Z,1.33
2022-12-22T19:54:18.605Z,2.23
2022-12-22T19:57:10.300Z,1.63
2022-12-22T20:00:01.387Z,1.93
2022-12-22T20:02:50.483Z,2.07
2022-12-22T20:05:40.199Z,1.10
2022-12-22T20:08:27.390Z,1.77
2022-12-22T20:11:14.285Z,1.00
2022-12-22T20:14:02.010Z,1.10
2022-12-22T20:16:48.900Z,0.70
2022-12-22T20:19:36.505Z,2.33
2022-12-22T20:22:23.381Z,1.33
2022-12-22T20:25:11.323Z,1.47
2022-12-22T20:27:58.206Z,1.53
2022-12-22T20:30:49.413Z,1.87
2022-12-22T20:33:39.195Z,1.23
2022-12-22T20:36:37.529Z,0.60
2022-12-22T20:39:31.737Z,1.97
2022-12-22T20:42:18.765Z,1.53
2022-12-22T20:45:05.887Z,0.90
2022-12-22T20:47:54.475Z,0.60
2022-12-22T20:50:46.860Z,1.33
2022-12-22T20:53:37.028Z,0.70
2022-12-22T20:56:04.189Z,0.70
2022-12-22T20:58:35.208Z,2.23
2022-12-22T21:01:02.883Z,0.67
2022-12-22T21:03:29.853Z,0.60
2022-12-22T21:05:56.860Z,2.60
2022-12-22T21:08:46.591Z,0.73
2022-12-22T21:11:33.411Z,0.60
2022-12-22T21:14:20.504Z,0.60
2022-12-22T21:17:08.575Z,0.77
2022-12-22T21:19:55.598Z,1.57
2022-12-22T21:22:42.574Z,0.93
2022-12-22T21:25:30.837Z,2.07
2022-12-22T21:28:18.628Z,0.60
2022-12-22T21:31:05.829Z,1.60
2022-12-22T21:33:52.940Z,0.70
2022-12-22T21:36:43.891Z,1.30
2022-12-22T21:39:47.614Z,1.07
2022-12-22T21:42:36.626Z,0.57
2022-12-22T21:45:24.205Z,2.03
2022-12-22T21:48:11.173Z,0.90
2022-12-22T21:50:57.997Z,0.73
2022-12-22T21:53:45.237Z,0.40
2022-12-22T21:56:37.937Z,1.70
2022-12-22T21:59:25.237Z,0.40
2022-12-22T22:02:12.333Z,0.43
2022-12-22T22:04:59.490Z,0.70
2022-12-22T22:07:46.304Z,0.90
2022-12-22T22:10:33.675Z,0.37
2022-12-22T22:13:21.469Z,0.97
2022-12-22T22:16:08.561Z,0.43
2022-12-22T22:18:55.808Z,1.00
2022-12-22T22:21:42.767Z,0.60
2022-12-22T22:24:29.678Z,0.20
2022-12-22T22:27:16.623Z,1.10
2022-12-22T22:30:03.545Z,1.00
2022-12-22T22:32:50.429Z,2.23
2022-12-22T22:35:37.957Z,0.53
2022-12-22T22:38:24.775Z,1.13
2022-12-22T22:41:11.965Z,0.57
2022-12-22T22:43:58.748Z,2.03
2022-12-22T22:46:46.047Z,1.03
2022-12-22T22:49:32.974Z,0.40
2022-12-22T22:52:19.999Z,2.93
2022-12-22T22:55:06.936Z,1.07
2022-12-22T22:57:54.170Z,0.73
2022-12-22T23:00:41.383Z,1.73
2022-12-22T23:03:28.660Z,2.13
2022-12-22T23:06:21.719Z,1.43
2022-12-22T23:09:09.255Z,0.87
2022-12-22T23:11:56.270Z,2.20
2022-12-22T23:14:45.394Z,0.50
2022-12-22T23:17:32.291Z,0.47
2022-12-22T23:20:19.999Z,0.27
2022-12-22T23:23:07.325Z,0.80
2022-12-22T23:25:54.364Z,0.53
2022-12-22T23:28:41.506Z,0.70
2022-12-22T23:31:31.105Z,0.83
2022-12-22T23:34:18.128Z,1.53
2022-12-22T23:37:05.185Z,0.77
2022-12-22T23:39:52.051Z,1.40
2022-12-22T23:42:39.030Z,0.97
2022-12-22T23:45:26.297Z,0.37
2022-12-22T23:48:13.437Z,0.37
2022-12-22T23:51:00.368Z,1.07
2022-12-22T23:53:47.363Z,0.53
2022-12-22T23:56:34.360Z,1.10
2022-12-22T23:59:21.289Z,0.67
